CYBW/YBW METAR and TAF weather

Enter ICAO airport designator
Station Type Date Time Source
CYBW METAR 2019/07/20 19:49 UTC NOAA

CYBW 201949Z AUTO 31007KT 9SM SCT011 SCT033 BKN050 OVC070 12/11 A3016 RMK LTNG DIST N NW SLP230 DENSITY ALT 4200FT


Station Type Date Time Source
CYBW Decoded METAR 2019/07/20 19:49 UTC NOAA

Calgary / Springbank, Canada (CYBW) 51-06N 114-22W
Jul 20, 2019 - 03:49 PM EDT / 2019.07.20 1949 UTC
Wind: from the NW (310 degrees) at 8 MPH (7 KT):0
Visibility: 9 mile(s):0
Sky conditions: overcast
Temperature: 53 F (12 C)
Dew Point: 51 F (11 C)
Relative Humidity: 93%
Pressure (altimeter): 30.16 in. Hg (1021 hPa)
ob: CYBW 201949Z AUTO 31007KT 9SM SCT011 SCT033 BKN050 OVC070 12/11 A3016 RMK LTNG DIST N NW SLP230 DENSITY ALT 4200FT
cycle: 20

Station Type Date Time Source
CYBW TAF 2019/07/20 18:00 UTC NOAA

TAF CYBW 201738Z 2018/2104 32008KT P6SM SCT012 BKN030
TEMPO 2018/2020 5SM -SHRA BR BKN012 OVC020
FM202000 31012KT P6SM SCT030 BKN040
TEMPO 2020/2103 6SM -SHRA OVC030 PROB40 2020/2103 5SM TSRA OVC020CB
FM210300 29005KT P6SM SCT012 BKN030
TEMPO 2103/2104 4SM -SHRA BR OVC012
RMK FCST BASED ON AUTO OBS. NXT FCST BY 210000Z

Example: see airport list